createdAt,value
2023-03-03T00:02:01.968Z,3.39
2023-03-03T00:05:04.779Z,3.44
2023-03-03T00:08:07.308Z,3.33
2023-03-03T00:11:11.020Z,3.37
2023-03-03T00:14:39.012Z,3.32
2023-03-03T00:17:42.914Z,3.33
2023-03-03T00:20:52.213Z,3.27
2023-03-03T00:24:16.815Z,3.32
2023-03-03T00:27:34.373Z,3.26
2023-03-03T00:30:38.177Z,3.11
2023-03-03T00:33:55.328Z,3.24
2023-03-03T00:36:58.295Z,3.17
2023-03-03T00:40:21.296Z,3.15
2023-03-03T00:43:27.900Z,3.06
2023-03-03T00:46:30.848Z,3.22
2023-03-03T00:49:33.844Z,3.24
2023-03-03T00:52:44.720Z,3.35
2023-03-03T00:55:49.813Z,3.26
2023-03-03T00:58:52.514Z,3.27
2023-03-03T01:01:57.062Z,3.26
2023-03-03T01:05:00.331Z,3.29
2023-03-03T01:08:03.143Z,3.42
2023-03-03T01:11:19.870Z,3.40
2023-03-03T01:14:23.760Z,3.52
2023-03-03T01:17:26.806Z,3.54
2023-03-03T01:20:29.446Z,3.66
2023-03-03T01:23:31.681Z,3.76
2023-03-03T01:26:34.240Z,3.71
2023-03-03T01:29:36.495Z,3.65
2023-03-03T01:32:39.157Z,3.58
2023-03-03T01:35:45.939Z,3.52
2023-03-03T01:38:48.951Z,3.65
2023-03-03T01:41:51.290Z,3.55
2023-03-03T01:45:18.512Z,3.51
2023-03-03T01:48:34.686Z,3.60
2023-03-03T01:51:46.779Z,3.64
2023-03-03T01:54:54.074Z,3.59
2023-03-03T01:58:01.881Z,3.48
2023-03-03T02:01:08.292Z,3.53
2023-03-03T02:04:11.781Z,3.48
2023-03-03T02:07:16.045Z,3.25
2023-03-03T02:10:21.507Z,3.17
2023-03-03T02:13:24.040Z,3.30
2023-03-03T02:16:30.712Z,3.48
2023-03-03T02:20:02.035Z,3.47
2023-03-03T02:23:13.405Z,3.60
2023-03-03T02:26:19.281Z,3.43
2023-03-03T02:29:21.889Z,3.37
2023-03-03T02:32:25.202Z,3.53
2023-03-03T02:35:31.845Z,3.39
2023-03-03T02:38:45.720Z,3.38
2023-03-03T02:41:55.571Z,3.58
2023-03-03T02:44:58.971Z,3.52
2023-03-03T02:48:01.613Z,3.55
2023-03-03T02:51:04.608Z,3.54
2023-03-03T02:54:08.737Z,3.56
2023-03-03T02:57:11.893Z,3.59
2023-03-03T03:00:14.417Z,3.74
2023-03-03T03:03:17.576Z,3.76
2023-03-03T03:06:20.002Z,3.75
2023-03-03T03:09:25.296Z,3.72
2023-03-03T03:12:28.297Z,3.77
2023-03-03T03:15:32.300Z,3.41
2023-03-03T03:18:34.839Z,3.16
2023-03-03T03:21:37.708Z,3.25
2023-03-03T03:24:41.009Z,3.44
2023-03-03T03:27:44.498Z,3.20
2023-03-03T03:30:48.258Z,3.32
2023-03-03T03:33:51.945Z,3.47
2023-03-03T03:36:55.253Z,3.56
2023-03-03T03:39:58.462Z,3.65
2023-03-03T03:43:01.962Z,3.81
2023-03-03T03:46:06.094Z,3.92
2023-03-03T03:49:08.743Z,3.86
2023-03-03T03:52:11.493Z,4.02
2023-03-03T03:55:15.097Z,3.99
2023-03-03T03:58:18.855Z,4.08
2023-03-03T04:01:22.277Z,4.03
2023-03-03T04:04:25.601Z,4.29
2023-03-03T04:07:29.092Z,3.87
2023-03-03T04:10:33.155Z,3.80
2023-03-03T04:13:35.886Z,3.39
2023-03-03T04:16:39.780Z,3.56
2023-03-03T04:19:42.585Z,3.56
2023-03-03T04:22:45.676Z,3.63
2023-03-03T04:25:49.613Z,3.84
2023-03-03T04:28:52.761Z,3.96
2023-03-03T04:31:55.527Z,4.12
2023-03-03T04:35:07.221Z,4.28
2023-03-03T04:38:11.540Z,4.32
2023-03-03T04:41:14.290Z,4.27
2023-03-03T04:44:17.386Z,4.34
2023-03-03T04:47:20.004Z,4.36
2023-03-03T04:50:23.163Z,4.36
2023-03-03T04:53:26.417Z,4.35
2023-03-03T04:56:31.605Z,4.31
2023-03-03T04:59:35.973Z,4.31
2023-03-03T05:02:39.706Z,4.25
2023-03-03T05:05:43.175Z,4.24
2023-03-03T05:08:46.377Z,4.19
2023-03-03T05:11:51.311Z,4.24
2023-03-03T05:14:54.033Z,4.33
2023-03-03T05:17:57.141Z,4.46
2023-03-03T05:20:59.490Z,4.57
2023-03-03T05:24:02.185Z,4.56
2023-03-03T05:27:04.851Z,4.75
2023-03-03T05:30:08.916Z,4.70
2023-03-03T05:33:14.863Z,4.79
2023-03-03T05:36:17.683Z,4.68
2023-03-03T05:39:20.661Z,4.67
2023-03-03T05:42:24.176Z,4.70
2023-03-03T05:45:26.838Z,4.49
2023-03-03T05:48:30.700Z,4.68
2023-03-03T05:51:33.237Z,4.79
2023-03-03T05:54:36.142Z,4.94
2023-03-03T05:57:39.024Z,4.96
2023-03-03T06:00:41.957Z,4.94
2023-03-03T06:03:45.668Z,5.17
2023-03-03T06:06:47.941Z,5.04
2023-03-03T06:09:51.048Z,5.10
2023-03-03T06:12:55.094Z,5.24
2023-03-03T06:15:58.237Z,5.24
2023-03-03T06:19:01.459Z,5.37
2023-03-03T06:22:04.459Z,5.36
2023-03-03T06:25:07.206Z,5.50
2023-03-03T06:28:10.920Z,5.67
2023-03-03T06:31:13.184Z,5.58
2023-03-03T06:34:16.168Z,5.62
2023-03-03T06:37:18.842Z,5.67
2023-03-03T06:40:21.945Z,5.73
2023-03-03T06:43:24.894Z,5.86
2023-03-03T06:46:28.507Z,5.93
2023-03-03T06:49:31.119Z,6.04
2023-03-03T06:52:34.028Z,6.29
2023-03-03T06:55:37.409Z,6.35
2023-03-03T06:58:42.637Z,6.47
2023-03-03T07:01:47.760Z,6.59
2023-03-03T07:04:59.022Z,6.71
2023-03-03T07:08:01.767Z,6.77
2023-03-03T07:11:11.705Z,6.83
2023-03-03T07:14:19.700Z,6.64
2023-03-03T07:17:25.255Z,6.66
2023-03-03T07:20:39.333Z,6.99
2023-03-03T07:23:43.979Z,6.96
2023-03-03T07:26:46.384Z,6.86
2023-03-03T07:29:51.640Z,6.87
2023-03-03T07:32:59.194Z,6.90
2023-03-03T07:36:07.076Z,7.16
2023-03-03T07:39:32.525Z,7.25
2023-03-03T07:42:41.253Z,7.32
2023-03-03T07:45:48.992Z,7.31
2023-03-03T07:48:57.964Z,7.74
2023-03-03T07:52:03.335Z,7.56
2023-03-03T07:55:25.547Z,7.69
2023-03-03T07:58:38.578Z,8.00
2023-03-03T08:01:46.493Z,8.04
2023-03-03T08:04:58.214Z,7.98
2023-03-03T08:08:18.129Z,8.13
2023-03-03T08:11:21.595Z,8.18
2023-03-03T08:14:33.961Z,8.61
2023-03-03T08:17:41.768Z,8.62
2023-03-03T08:20:47.511Z,8.71
2023-03-03T08:23:51.784Z,9.10
2023-03-03T08:26:54.492Z,9.10
2023-03-03T08:29:57.850Z,9.29
2023-03-03T08:33:02.093Z,9.46
2023-03-03T08:36:06.187Z,9.74
2023-03-03T08:39:09.493Z,9.92
2023-03-03T08:42:13.660Z,9.80
2023-03-03T08:45:17.259Z,10.20
2023-03-03T08:48:21.735Z,10.21
2023-03-03T08:51:27.333Z,10.51
2023-03-03T08:54:32.868Z,10.68
2023-03-03T08:57:35.192Z,10.59
2023-03-03T09:00:41.963Z,10.67
2023-03-03T09:03:45.214Z,11.18
2023-03-03T09:06:50.672Z,11.09
2023-03-03T09:09:53.285Z,10.75
2023-03-03T09:12:59.075Z,10.87
2023-03-03T09:16:01.899Z,11.00
2023-03-03T09:19:27.554Z,10.66
2023-03-03T09:22:36.840Z,11.02
2023-03-03T09:25:42.166Z,11.08
2023-03-03T09:28:44.535Z,11.24
2023-03-03T09:31:55.962Z,11.25
2023-03-03T09:34:59.597Z,11.21
2023-03-03T09:38:26.993Z,11.52
2023-03-03T09:41:52.977Z,11.78
2023-03-03T09:45:22.223Z,11.54
2023-03-03T09:48:39.426Z,11.63
2023-03-03T09:51:49.916Z,11.29
2023-03-03T09:55:26.502Z,11.86
2023-03-03T09:59:06.343Z,11.93
2023-03-03T10:02:55.079Z,11.53
2023-03-03T10:06:11.298Z,11.69
2023-03-03T10:09:51.119Z,11.94
2023-03-03T10:13:18.318Z,12.05
2023-03-03T10:16:38.242Z,12.12
2023-03-03T10:20:01.489Z,12.32
2023-03-03T10:23:21.242Z,11.95
2023-03-03T10:27:05.340Z,11.63
2023-03-03T10:31:10.407Z,11.57
2023-03-03T10:34:30.046Z,11.60
2023-03-03T10:37:47.565Z,11.53
2023-03-03T10:41:21.287Z,11.70
2023-03-03T10:44:39.478Z,11.52
2023-03-03T10:48:06.662Z,11.39
2023-03-03T10:51:32.411Z,11.66
2023-03-03T10:55:10.299Z,11.48
2023-03-03T10:58:27.384Z,11.50
2023-03-03T11:01:54.003Z,11.70
2023-03-03T11:05:11.569Z,11.59
2023-03-03T11:08:42.992Z,11.73
2023-03-03T11:11:59.890Z,11.83
2023-03-03T11:15:20.784Z,11.90
2023-03-03T11:18:48.070Z,11.88
2023-03-03T11:22:18.348Z,12.05
2023-03-03T11:25:34.332Z,12.35
2023-03-03T11:28:54.188Z,12.19
2023-03-03T11:32:17.961Z,12.14
2023-03-03T11:35:32.953Z,12.47
2023-03-03T11:38:55.159Z,12.24
2023-03-03T11:42:14.548Z,12.52
2023-03-03T11:45:26.451Z,12.64
2023-03-03T11:48:46.250Z,12.91
2023-03-03T11:52:16.937Z,12.50
2023-03-03T11:55:29.180Z,12.53
2023-03-03T11:58:47.124Z,12.57
2023-03-03T12:02:14.908Z,12.77
2023-03-03T12:05:29.794Z,12.35
2023-03-03T12:08:37.891Z,12.34
2023-03-03T12:11:54.270Z,12.07
2023-03-03T12:15:26.253Z,12.25
2023-03-03T12:18:48.141Z,12.57
2023-03-03T12:21:59.461Z,12.61
2023-03-03T12:25:20.304Z,12.82
2023-03-03T12:28:45.746Z,13.19
2023-03-03T12:32:00.292Z,13.30
2023-03-03T12:35:17.868Z,13.23
2023-03-03T12:38:35.940Z,13.47
2023-03-03T12:42:10.670Z,13.55
2023-03-03T12:45:25.480Z,13.80
2023-03-03T12:48:45.285Z,14.08
2023-03-03T12:52:08.778Z,13.87
2023-03-03T12:55:35.718Z,14.35
2023-03-03T12:59:05.035Z,14.43
2023-03-03T13:02:16.980Z,14.19
2023-03-03T13:05:50.970Z,14.11
2023-03-03T13:09:17.431Z,13.89
2023-03-03T13:12:39.677Z,13.57
2023-03-03T13:16:38.858Z,13.52
2023-03-03T13:20:19.801Z,13.37
2023-03-03T13:23:51.848Z,13.12
2023-03-03T13:27:04.180Z,13.18
2023-03-03T13:30:25.288Z,13.19
2023-03-03T13:33:33.968Z,13.19
2023-03-03T13:36:50.898Z,13.13
2023-03-03T13:40:00.010Z,13.43
2023-03-03T13:43:15.112Z,13.38
2023-03-03T13:46:28.573Z,13.38
2023-03-03T13:49:45.533Z,13.29
2023-03-03T13:52:57.402Z,13.31
2023-03-03T13:56:19.050Z,13.45
2023-03-03T13:59:53.504Z,13.40
2023-03-03T14:03:21.664Z,13.21
2023-03-03T14:06:27.525Z,13.18
2023-03-03T14:09:44.830Z,13.15
2023-03-03T14:12:58.903Z,13.18
2023-03-03T14:16:20.113Z,12.98
2023-03-03T14:19:37.781Z,12.79
2023-03-03T14:22:50.788Z,12.91
2023-03-03T14:25:59.865Z,13.08
2023-03-03T14:29:33.101Z,12.83
2023-03-03T14:32:45.156Z,12.79
2023-03-03T14:35:57.382Z,12.73
2023-03-03T14:39:00.997Z,12.79
2023-03-03T14:42:15.423Z,12.61
2023-03-03T14:45:31.231Z,12.69
2023-03-03T14:48:50.510Z,12.63
2023-03-03T14:51:53.702Z,12.71
2023-03-03T14:54:59.767Z,12.62
2023-03-03T14:58:04.018Z,12.47
2023-03-03T15:01:16.564Z,12.55
2023-03-03T15:04:27.760Z,12.61
2023-03-03T15:07:38.887Z,12.46
2023-03-03T15:10:44.330Z,12.31
2023-03-03T15:13:46.655Z,12.06
2023-03-03T15:16:49.354Z,11.94
2023-03-03T15:20:17.498Z,11.88
2023-03-03T15:23:59.753Z,12.00
2023-03-03T15:27:13.147Z,11.87
2023-03-03T15:30:21.997Z,11.62
2023-03-03T15:33:42.892Z,11.42
2023-03-03T15:36:55.868Z,11.65
2023-03-03T15:40:14.216Z,11.32
2023-03-03T15:43:25.787Z,11.20
2023-03-03T15:47:10.457Z,11.19
2023-03-03T15:50:21.632Z,11.16
2023-03-03T15:53:43.002Z,11.01
2023-03-03T15:56:58.261Z,10.93
2023-03-03T16:00:22.524Z,10.76
2023-03-03T16:03:36.358Z,10.68
2023-03-03T16:06:45.644Z,10.51
2023-03-03T16:10:12.010Z,10.44
2023-03-03T16:13:52.229Z,10.36
2023-03-03T16:17:05.331Z,10.20
2023-03-03T16:20:25.476Z,10.09
2023-03-03T16:23:49.133Z,10.02
2023-03-03T16:27:03.785Z,9.94
2023-03-03T16:30:28.366Z,9.89
2023-03-03T16:33:54.174Z,9.73
2023-03-03T16:37:14.811Z,9.54
2023-03-03T16:40:25.750Z,9.42
2023-03-03T16:43:43.655Z,9.24
2023-03-03T16:46:49.356Z,9.16
2023-03-03T16:50:21.126Z,9.03
2023-03-03T16:53:54.272Z,8.92
2023-03-03T16:57:27.750Z,8.80
2023-03-03T17:00:38.208Z,8.64
2023-03-03T17:03:40.754Z,8.57
2023-03-03T17:06:54.015Z,8.45
2023-03-03T17:10:24.761Z,8.48
2023-03-03T17:13:55.018Z,8.32
2023-03-03T17:17:12.331Z,8.18
2023-03-03T17:20:14.525Z,8.14
2023-03-03T17:23:23.445Z,8.02
2023-03-03T17:27:00.404Z,8.11
2023-03-03T17:30:14.843Z,7.99
2023-03-03T17:33:45.289Z,8.07
2023-03-03T17:36:59.105Z,7.93
2023-03-03T17:40:25.404Z,7.81
2023-03-03T17:43:30.796Z,7.91
2023-03-03T17:46:51.584Z,7.89
2023-03-03T17:49:57.045Z,7.78
2023-03-03T17:53:46.956Z,7.57
2023-03-03T17:56:57.151Z,7.43
2023-03-03T18:00:15.641Z,7.40
2023-03-03T18:03:38.160Z,7.26
2023-03-03T18:06:56.584Z,7.07
2023-03-03T18:10:15.647Z,6.87
2023-03-03T18:13:45.858Z,6.83
2023-03-03T18:17:05.528Z,6.78
2023-03-03T18:20:10.684Z,6.62
2023-03-03T18:23:48.947Z,6.59
2023-03-03T18:26:55.101Z,6.51
2023-03-03T18:30:07.753Z,6.42
2023-03-03T18:33:12.835Z,6.37
2023-03-03T18:36:27.429Z,6.36
2023-03-03T18:39:45.571Z,6.26
2023-03-03T18:42:53.767Z,6.27
2023-03-03T18:45:56.358Z,6.20
2023-03-03T18:49:04.605Z,6.25
2023-03-03T18:52:34.997Z,6.24
2023-03-03T18:55:49.986Z,5.87
2023-03-03T18:58:53.678Z,5.86
2023-03-03T19:02:18.796Z,5.85
2023-03-03T19:05:32.263Z,5.81
2023-03-03T19:08:47.698Z,5.68
2023-03-03T19:11:52.150Z,5.66
2023-03-03T19:14:54.993Z,5.47
2023-03-03T19:18:02.088Z,5.47
2023-03-03T19:21:18.946Z,5.43
2023-03-03T19:24:31.376Z,5.60
2023-03-03T19:27:57.443Z,5.34
2023-03-03T19:31:16.762Z,5.41
2023-03-03T19:34:26.593Z,5.30
2023-03-03T19:37:48.217Z,5.36
2023-03-03T19:41:01.173Z,5.27
2023-03-03T19:44:31.270Z,5.26
2023-03-03T19:47:37.940Z,5.23
2023-03-03T19:50:53.784Z,5.29
2023-03-03T19:54:02.005Z,5.21
2023-03-03T19:57:14.122Z,5.19
2023-03-03T20:00:41.082Z,5.18
2023-03-03T20:03:49.279Z,5.12
2023-03-03T20:06:54.480Z,5.05
2023-03-03T20:10:15.559Z,5.21
2023-03-03T20:13:30.756Z,5.18
2023-03-03T20:16:41.357Z,5.18
2023-03-03T20:19:52.107Z,5.24
2023-03-03T20:23:00.679Z,5.13
2023-03-03T20:26:21.267Z,5.14
2023-03-03T20:29:46.052Z,5.22
2023-03-03T20:33:18.670Z,5.21
2023-03-03T20:36:35.261Z,5.25
2023-03-03T20:40:02.737Z,5.27
2023-03-03T20:43:22.873Z,5.17
2023-03-03T20:46:51.070Z,5.04
2023-03-03T20:50:28.762Z,4.55
2023-03-03T20:53:45.159Z,4.32
2023-03-03T20:57:03.048Z,4.24
2023-03-03T21:00:08.152Z,4.32
2023-03-03T21:03:19.878Z,4.57
2023-03-03T21:06:38.576Z,4.58
2023-03-03T21:09:41.124Z,4.55
2023-03-03T21:12:44.227Z,4.64
2023-03-03T21:16:02.006Z,4.59
2023-03-03T21:19:11.266Z,4.63
2023-03-03T21:22:13.924Z,4.50
2023-03-03T21:25:41.228Z,4.50
2023-03-03T21:29:02.227Z,4.40
2023-03-03T21:32:08.328Z,4.23
2023-03-03T21:35:17.630Z,4.24
2023-03-03T21:38:33.986Z,4.32
2023-03-03T21:41:58.433Z,4.22
2023-03-03T21:45:10.102Z,4.23
2023-03-03T21:48:12.972Z,4.26
2023-03-03T21:51:15.966Z,4.30
2023-03-03T21:54:18.606Z,4.33
2023-03-03T21:57:22.188Z,4.28
2023-03-03T22:00:24.824Z,4.24
2023-03-03T22:03:28.141Z,4.09
2023-03-03T22:06:30.481Z,4.07
2023-03-03T22:09:33.709Z,3.95
2023-03-03T22:12:36.209Z,3.90
2023-03-03T22:15:38.856Z,3.93
2023-03-03T22:18:41.158Z,3.82
2023-03-03T22:21:43.784Z,3.84
2023-03-03T22:24:46.060Z,3.74
2023-03-03T22:27:48.650Z,3.66
2023-03-03T22:30:50.984Z,3.60
2023-03-03T22:33:53.989Z,3.53
2023-03-03T22:36:56.210Z,3.60
2023-03-03T22:39:58.993Z,3.31
2023-03-03T22:43:01.525Z,3.15
2023-03-03T22:46:04.961Z,3.15
2023-03-03T22:49:07.225Z,3.14
2023-03-03T22:52:09.802Z,3.08
2023-03-03T22:55:12.972Z,3.13
2023-03-03T22:58:19.578Z,3.34
2023-03-03T23:01:21.904Z,3.26
2023-03-03T23:04:24.735Z,3.50
2023-03-03T23:07:30.448Z,3.53
2023-03-03T23:10:33.292Z,3.21
2023-03-03T23:13:35.425Z,2.85
2023-03-03T23:16:38.189Z,2.59
2023-03-03T23:19:40.390Z,2.65
2023-03-03T23:22:43.517Z,2.57
2023-03-03T23:25:46.112Z,2.13
2023-03-03T23:28:49.040Z,2.27
2023-03-03T23:31:51.269Z,2.52
2023-03-03T23:34:54.246Z,2.68
2023-03-03T23:37:56.567Z,2.84
2023-03-03T23:40:59.120Z,2.87
2023-03-03T23:44:01.660Z,2.92
2023-03-03T23:47:05.785Z,2.78
2023-03-03T23:50:10.477Z,2.84
2023-03-03T23:53:13.089Z,2.97
2023-03-03T23:56:15.359Z,2.96
2023-03-03T23:59:18.458Z,2.68
